createdAt,value
2023-04-28T00:00:29.226Z,98595.91
2023-04-28T00:02:59.560Z,98594.80
2023-04-28T00:05:26.912Z,98596.41
2023-04-28T00:07:54.052Z,98596.73
2023-04-28T00:10:21.090Z,98597.35
2023-04-28T00:12:48.047Z,98597.55
2023-04-28T00:15:15.702Z,98600.98
2023-04-28T00:17:43.457Z,98603.98
2023-04-28T00:20:11.650Z,98606.41
2023-04-28T00:22:38.531Z,98605.11
2023-04-28T00:25:06.862Z,98604.49
2023-04-28T00:27:36.697Z,98603.75
2023-04-28T00:30:04.156Z,98605.87
2023-04-28T00:32:31.227Z,98606.70
2023-04-28T00:34:58.246Z,98606.52
2023-04-28T00:37:25.673Z,98607.82
2023-04-28T00:40:02.242Z,98614.27
2023-04-28T00:42:29.187Z,98614.96
2023-04-28T00:44:56.232Z,98617.48
2023-04-28T00:47:23.319Z,98621.65
2023-04-28T00:49:52.407Z,98622.97
2023-04-28T00:52:19.350Z,98628.06
2023-04-28T00:54:48.007Z,98631.41
2023-04-28T00:57:15.056Z,98632.18
2023-04-28T00:59:42.103Z,98633.73
2023-04-28T01:02:08.932Z,98634.45
2023-04-28T01:04:42.327Z,98641.53
2023-04-28T01:07:09.598Z,98636.45
2023-04-28T01:09:36.881Z,98634.52
2023-04-28T01:12:05.059Z,98636.13
2023-04-28T01:14:43.430Z,98635.10
2023-04-28T01:17:10.641Z,98638.05
2023-04-28T01:19:38.240Z,98644.35
2023-04-28T01:22:05.543Z,98641.46
2023-04-28T01:24:32.753Z,98647.30
2023-04-28T01:27:03.175Z,98646.41
2023-04-28T01:29:30.144Z,98652.81
2023-04-28T01:31:57.431Z,98651.70
2023-04-28T01:34:27.254Z,98654.17
2023-04-28T01:36:54.121Z,98656.91
2023-04-28T01:39:21.182Z,98657.59
2023-04-28T01:41:48.047Z,98651.88
2023-04-28T01:44:15.115Z,98650.96
2023-04-28T01:46:42.301Z,98652.49
2023-04-28T01:49:12.129Z,98655.16
2023-04-28T01:51:41.800Z,98655.32
2023-04-28T01:54:08.793Z,98655.48
2023-04-28T01:56:38.724Z,98654.20
2023-04-28T05:08:45.349Z,98778.95
2023-04-28T08:12:08.325Z,98786.95
2023-04-28T08:23:23.449Z,98798.05
2023-04-28T08:30:10.829Z,98797.01
2023-04-28T09:21:09.346Z,98800.71
2023-04-28T09:28:22.452Z,98796.95
2023-04-28T09:31:25.112Z,98803.09
2023-04-28T09:38:45.066Z,98796.31
2023-04-28T09:51:03.693Z,98797.95
2023-04-28T09:53:30.697Z,98789.95
2023-04-28T10:04:47.700Z,98786.75
2023-04-28T11:19:37.118Z,98756.41
2023-04-28T11:49:05.739Z,98754.62
2023-04-28T12:23:05.145Z,98723.17
2023-04-28T12:34:46.254Z,98724.33
2023-04-28T12:41:58.730Z,98720.09
2023-04-28T12:49:09.044Z,98720.02
2023-04-28T12:56:20.262Z,98715.48
2023-04-28T13:03:30.302Z,98717.81
2023-04-28T13:10:41.275Z,98714.36
2023-04-28T14:57:01.439Z,98680.71
2023-04-28T15:35:33.162Z,98666.94
2023-04-28T15:47:05.182Z,98669.84
2023-04-28T16:04:31.203Z,98680.96
2023-04-28T16:07:02.552Z,98680.56
2023-04-28T16:09:30.092Z,98683.34
2023-04-28T16:11:59.832Z,98682.58
2023-04-28T16:14:27.062Z,98683.59
2023-04-28T16:16:57.233Z,98684.05
2023-04-28T16:19:26.153Z,98682.27
2023-04-28T16:21:53.619Z,98680.17
2023-04-28T16:24:22.511Z,98681.91
2023-04-28T16:26:51.413Z,98677.73
2023-04-28T16:29:18.856Z,98676.80
2023-04-28T16:31:45.972Z,98678.27
2023-04-28T16:34:13.969Z,98675.25
2023-04-28T16:36:41.894Z,98680.19
2023-04-28T16:39:09.635Z,98676.62
2023-04-28T16:41:37.761Z,98680.07
2023-04-28T16:44:05.887Z,98685.73
2023-04-28T16:46:33.067Z,98684.30
2023-04-28T16:49:00.549Z,98684.25
2023-04-28T16:51:28.472Z,98680.41
2023-04-28T16:53:55.882Z,98682.49
2023-04-28T16:56:27.630Z,98683.02
2023-04-28T16:58:54.698Z,98681.86
2023-04-28T17:01:22.142Z,98681.04
2023-04-28T17:03:53.175Z,98682.16
2023-04-28T17:06:28.171Z,98683.55
2023-04-28T17:08:55.265Z,98688.51
2023-04-28T17:11:22.872Z,98691.55
2023-04-28T17:13:50.997Z,98691.21
2023-04-28T17:16:19.718Z,98696.11
2023-04-28T17:18:47.839Z,98691.41
2023-04-28T17:21:14.997Z,98692.58
2023-04-28T17:23:42.784Z,98690.39
2023-04-28T17:26:11.989Z,98691.41
2023-04-28T17:28:41.456Z,98692.48
2023-04-28T17:31:08.733Z,98691.80
2023-04-28T17:33:35.882Z,98696.64
2023-04-28T17:36:03.617Z,98699.83
2023-04-28T17:38:31.390Z,98699.64
2023-04-28T17:40:58.604Z,98701.93
2023-04-28T17:43:26.055Z,98702.91
2023-04-28T17:45:54.387Z,98703.60
2023-04-28T17:48:23.161Z,98708.69
2023-04-28T17:50:50.356Z,98711.70
2023-04-28T17:53:18.188Z,98713.34
2023-04-28T17:55:46.751Z,98716.23
2023-04-28T17:58:13.802Z,98715.89
2023-04-28T18:00:42.099Z,98712.79
2023-04-28T18:03:09.175Z,98713.66
2023-04-28T18:05:44.921Z,98716.86
2023-04-28T18:08:13.974Z,98716.75
2023-04-28T18:10:42.757Z,98720.56
2023-04-28T18:13:10.685Z,98723.11
2023-04-28T18:15:37.881Z,98728.36
2023-04-28T18:18:06.871Z,98728.08
2023-04-28T18:20:33.853Z,98732.17
2023-04-28T18:23:02.196Z,98733.34
2023-04-28T18:25:32.354Z,98735.05
2023-04-28T18:27:59.970Z,98738.88
2023-04-28T18:30:40.846Z,98741.99
2023-04-28T18:33:08.748Z,98741.48
2023-04-28T18:35:39.805Z,98744.52
2023-04-28T18:38:07.921Z,98747.23
2023-04-28T18:40:38.861Z,98742.73
2023-04-28T18:43:10.576Z,98747.19
2023-04-28T18:45:39.581Z,98745.58
2023-04-28T18:48:08.006Z,98746.91
2023-04-28T18:50:36.362Z,98746.45
2023-04-28T18:53:04.531Z,98747.80
2023-04-28T18:55:35.069Z,98747.30
2023-04-28T18:58:02.367Z,98746.63
2023-04-28T19:00:35.699Z,98753.55
2023-04-28T19:03:04.513Z,98749.69
2023-04-28T19:05:31.890Z,98748.65
2023-04-28T19:07:58.816Z,98747.52
2023-04-28T19:10:25.997Z,98747.06
2023-04-28T19:12:53.214Z,98749.23
2023-04-28T19:15:20.868Z,98750.32
2023-04-28T19:17:48.048Z,98748.54
2023-04-28T19:20:15.982Z,98752.69
2023-04-28T19:22:46.776Z,98753.98
2023-04-28T19:25:13.787Z,98750.45
2023-04-28T19:27:41.440Z,98750.67
2023-04-28T19:30:11.070Z,98747.77
2023-04-28T19:32:39.874Z,98748.11
2023-04-28T19:35:07.494Z,98745.09
2023-04-28T19:37:35.366Z,98744.88
2023-04-28T19:40:05.155Z,98743.79
2023-04-28T19:42:33.744Z,98744.77
2023-04-28T19:45:00.805Z,98743.31
2023-04-28T19:47:33.079Z,98742.64
2023-04-28T19:50:00.975Z,98735.11
2023-04-28T19:52:28.904Z,98739.31
2023-04-28T19:54:56.116Z,98736.58
2023-04-28T19:57:24.373Z,98736.65
2023-04-28T19:59:52.179Z,98736.23
2023-04-28T20:02:21.323Z,98735.48
2023-04-28T20:04:51.849Z,98737.64
2023-04-28T20:07:21.927Z,98739.30
2023-04-28T20:09:50.116Z,98734.77
2023-04-28T20:12:19.729Z,98733.02
2023-04-28T20:14:47.377Z,98733.70
2023-04-28T20:17:14.358Z,98732.90
2023-04-28T20:19:42.487Z,98733.63
2023-04-28T20:22:10.048Z,98732.97
2023-04-28T20:24:39.540Z,98733.73
2023-04-28T20:27:06.602Z,98737.23
2023-04-28T20:29:37.707Z,98735.70
2023-04-28T20:32:05.010Z,98737.19
2023-04-28T20:34:34.085Z,98734.77
2023-04-28T20:37:03.694Z,98735.61
2023-04-28T20:39:31.158Z,98738.41
2023-04-28T20:41:59.983Z,98736.36
2023-04-28T20:44:27.949Z,98735.52
2023-04-28T20:46:55.526Z,98735.63
2023-04-28T20:49:22.809Z,98735.11
2023-04-28T20:51:51.215Z,98737.50
2023-04-28T20:54:18.961Z,98732.98
2023-04-28T20:56:45.952Z,98727.48
2023-04-28T20:59:14.822Z,98722.58
2023-04-28T21:01:41.938Z,98724.17
2023-04-28T21:04:10.098Z,98729.08
2023-04-28T21:06:38.513Z,98727.63
2023-04-28T21:09:05.546Z,98732.73
2023-04-28T21:11:32.823Z,98729.90
2023-04-28T21:14:00.169Z,98729.36
2023-04-28T21:16:27.883Z,98733.98
2023-04-28T21:18:55.166Z,98732.80
2023-04-28T21:21:22.977Z,98735.39
2023-04-28T21:23:50.916Z,98731.45
2023-04-28T21:26:20.508Z,98734.77
2023-04-28T21:28:47.925Z,98733.20
2023-04-28T21:31:14.827Z,98733.98
2023-04-28T21:33:44.805Z,98730.77
2023-04-28T21:36:12.113Z,98723.23
2023-04-28T21:38:42.706Z,98727.16
2023-04-28T21:41:12.614Z,98723.96
2023-04-28T21:43:40.699Z,98727.16
2023-04-28T21:46:08.018Z,98730.69
2023-04-28T21:48:37.534Z,98728.83
2023-04-28T21:51:05.016Z,98728.52
2023-04-28T21:53:32.967Z,98723.45
2023-04-28T21:56:00.888Z,98724.60
2023-04-28T21:58:28.205Z,98721.53
2023-04-28T22:00:55.364Z,98718.19
2023-04-28T22:03:23.024Z,98723.23
2023-04-28T22:05:51.382Z,98722.57
2023-04-28T22:08:19.083Z,98718.06
2023-04-28T22:10:47.013Z,98719.34
2023-04-28T22:13:16.715Z,98717.91
2023-04-28T22:15:44.027Z,98717.93
2023-04-28T22:18:12.773Z,98715.20
2023-04-28T22:20:40.575Z,98716.42
2023-04-28T22:23:08.408Z,98711.27
2023-04-28T22:25:35.948Z,98705.38
2023-04-28T22:28:05.910Z,98700.61
2023-04-28T22:30:33.122Z,98696.70
2023-04-28T22:33:00.283Z,98696.08
2023-04-28T22:35:28.276Z,98700.43
2023-04-28T22:37:56.917Z,98695.92
2023-04-28T22:40:23.913Z,98698.30
2023-04-28T22:50:50.269Z,98691.34
2023-04-28T22:53:18.211Z,98689.16
2023-04-28T22:55:45.880Z,98684.00
2023-04-28T22:58:12.905Z,98683.27
2023-04-28T23:00:39.826Z,98678.33
2023-04-28T23:03:06.935Z,98675.52
2023-04-28T23:05:40.367Z,98679.27
2023-04-28T23:08:07.901Z,98676.02
2023-04-28T23:10:35.012Z,98669.84
2023-04-28T23:13:02.060Z,98666.13
2023-04-28T23:15:29.821Z,98662.52
2023-04-28T23:17:56.846Z,98660.83
2023-04-28T23:20:24.953Z,98660.30
2023-04-28T23:22:52.714Z,98662.05
2023-04-28T23:25:19.703Z,98663.30
2023-04-28T23:27:48.675Z,98662.45
2023-04-28T23:30:16.086Z,98662.73
2023-04-28T23:32:44.174Z,98662.33
2023-04-28T23:35:11.216Z,98661.70
2023-04-28T23:37:38.984Z,98662.70
2023-04-28T23:40:06.821Z,98661.15
2023-04-28T23:42:33.994Z,98659.29
2023-04-28T23:45:01.677Z,98657.94
2023-04-28T23:47:30.780Z,98654.94
2023-04-28T23:49:59.009Z,98656.63
2023-04-28T23:52:27.233Z,98657.83
2023-04-28T23:54:54.055Z,98664.31
2023-04-28T23:57:21.250Z,98665.27
